sensor_id;sensor_type;location;lat;lon;timestamp;P1;durP1;ratioP1;P2;durP2;ratioP2
12725;SDS011;6427;49.754;6.106;2022-09-12T00:00:19;26.33;;;9.50;;
12725;SDS011;6427;49.754;6.106;2022-09-12T00:02:50;29.37;;;10.43;;
12725;SDS011;6427;49.754;6.106;2022-09-12T00:05:14;26.90;;;10.23;;
12725;SDS011;6427;49.754;6.106;2022-09-12T00:07:42;48.23;;;12.60;;
12725;SDS011;6427;49.754;6.106;2022-09-12T00:10:10;54.10;;;10.67;;
12725;SDS011;6427;49.754;6.106;2022-09-12T00:12:38;38.50;;;10.27;;
12725;SDS011;6427;49.754;6.106;2022-09-12T00:15:05;50.10;;;10.00;;
12725;SDS011;6427;49.754;6.106;2022-09-12T00:17:34;51.10;;;10.47;;
12725;SDS011;6427;49.754;6.106;2022-09-12T00:20:02;44.60;;;9.73;;
12725;SDS011;6427;49.754;6.106;2022-09-12T00:22:29;91.43;;;12.10;;
12725;SDS011;6427;49.754;6.106;2022-09-12T00:24:57;41.20;;;10.40;;
12725;SDS011;6427;49.754;6.106;2022-09-12T00:27:25;58.93;;;10.97;;
12725;SDS011;6427;49.754;6.106;2022-09-12T00:29:52;28.63;;;10.03;;
12725;SDS011;6427;49.754;6.106;2022-09-12T00:32:20;25.40;;;9.10;;
12725;SDS011;6427;49.754;6.106;2022-09-12T00:34:47;48.97;;;10.33;;
12725;SDS011;6427;49.754;6.106;2022-09-12T00:37:15;26.10;;;9.10;;
12725;SDS011;6427;49.754;6.106;2022-09-12T00:39:43;28.57;;;10.00;;
12725;SDS011;6427;49.754;6.106;2022-09-12T00:42:11;47.93;;;9.53;;
12725;SDS011;6427;49.754;6.106;2022-09-12T00:44:42;52.37;;;10.67;;
12725;SDS011;6427;49.754;6.106;2022-09-12T00:49:47;30.30;;;9.17;;
12725;SDS011;6427;49.754;6.106;2022-09-12T00:52:13;32.77;;;9.67;;
12725;SDS011;6427;49.754;6.106;2022-09-12T00:54:44;43.73;;;9.93;;
12725;SDS011;6427;49.754;6.106;2022-09-12T00:57:30;35.10;;;10.07;;
12725;SDS011;6427;49.754;6.106;2022-09-12T00:59:57;49.13;;;10.63;;
12725;SDS011;6427;49.754;6.106;2022-09-12T01:02:29;35.17;;;9.13;;
12725;SDS011;6427;49.754;6.106;2022-09-12T01:04:56;50.97;;;10.40;;
12725;SDS011;6427;49.754;6.106;2022-09-12T01:07:25;43.45;;;11.43;;
12725;SDS011;6427;49.754;6.106;2022-09-12T01:09:52;41.67;;;9.60;;
12725;SDS011;6427;49.754;6.106;2022-09-12T01:12:20;39.57;;;9.27;;
12725;SDS011;6427;49.754;6.106;2022-09-12T01:14:48;47.40;;;10.87;;
12725;SDS011;6427;49.754;6.106;2022-09-12T01:17:15;58.43;;;10.37;;
12725;SDS011;6427;49.754;6.106;2022-09-12T01:19:49;31.97;;;8.77;;
12725;SDS011;6427;49.754;6.106;2022-09-12T01:22:27;51.73;;;9.37;;
12725;SDS011;6427;49.754;6.106;2022-09-12T01:25:27;32.33;;;8.07;;
12725;SDS011;6427;49.754;6.106;2022-09-12T01:28:33;71.37;;;11.75;;
12725;SDS011;6427;49.754;6.106;2022-09-12T01:31:11;57.13;;;10.87;;
12725;SDS011;6427;49.754;6.106;2022-09-12T01:33:37;43.80;;;9.50;;
12725;SDS011;6427;49.754;6.106;2022-09-12T01:36:12;49.63;;;10.43;;
12725;SDS011;6427;49.754;6.106;2022-09-12T01:38:53;79.13;;;8.90;;
12725;SDS011;6427;49.754;6.106;2022-09-12T01:44:03;50.15;;;11.20;;
12725;SDS011;6427;49.754;6.106;2022-09-12T01:46:41;32.37;;;10.77;;
12725;SDS011;6427;49.754;6.106;2022-09-12T01:49:16;35.23;;;9.00;;
12725;SDS011;6427;49.754;6.106;2022-09-12T01:51:47;102.50;;;12.93;;
12725;SDS011;6427;49.754;6.106;2022-09-12T01:54:15;162.80;;;15.03;;
12725;SDS011;6427;49.754;6.106;2022-09-12T01:56:45;93.23;;;10.97;;
12725;SDS011;6427;49.754;6.106;2022-09-12T01:59:17;73.20;;;11.40;;
12725;SDS011;6427;49.754;6.106;2022-09-12T02:01:51;36.77;;;9.83;;
12725;SDS011;6427;49.754;6.106;2022-09-12T02:06:52;40.73;;;9.50;;
12725;SDS011;6427;49.754;6.106;2022-09-12T02:09:23;48.47;;;9.90;;
12725;SDS011;6427;49.754;6.106;2022-09-12T02:11:49;34.53;;;9.90;;
12725;SDS011;6427;49.754;6.106;2022-09-12T02:14:21;64.83;;;11.27;;
12725;SDS011;6427;49.754;6.106;2022-09-12T02:16:51;29.73;;;10.13;;
12725;SDS011;6427;49.754;6.106;2022-09-12T02:19:16;33.77;;;9.10;;
12725;SDS011;6427;49.754;6.106;2022-09-12T02:21:49;71.33;;;10.50;;
12725;SDS011;6427;49.754;6.106;2022-09-12T02:24:13;32.90;;;9.53;;
12725;SDS011;6427;49.754;6.106;2022-09-12T02:26:43;43.40;;;9.80;;
12725;SDS011;6427;49.754;6.106;2022-09-12T02:29:08;29.05;;;11.32;;
12725;SDS011;6427;49.754;6.106;2022-09-12T02:31:38;31.40;;;9.90;;
12725;SDS011;6427;49.754;6.106;2022-09-12T02:39:41;43.67;;;10.37;;
12725;SDS011;6427;49.754;6.106;2022-09-12T02:42:08;49.93;;;10.07;;
12725;SDS011;6427;49.754;6.106;2022-09-12T02:44:36;43.80;;;11.80;;
12725;SDS011;6427;49.754;6.106;2022-09-12T02:47:08;40.03;;;10.13;;
12725;SDS011;6427;49.754;6.106;2022-09-12T02:49:34;51.97;;;10.77;;
12725;SDS011;6427;49.754;6.106;2022-09-12T02:52:01;40.30;;;9.60;;
12725;SDS011;6427;49.754;6.106;2022-09-12T02:54:29;53.07;;;8.97;;
12725;SDS011;6427;49.754;6.106;2022-09-12T02:56:57;80.03;;;9.53;;
12725;SDS011;6427;49.754;6.106;2022-09-12T02:59:25;49.50;;;10.93;;
12725;SDS011;6427;49.754;6.106;2022-09-12T03:04:39;46.13;;;8.97;;
12725;SDS011;6427;49.754;6.106;2022-09-12T03:07:14;66.03;;;9.90;;
12725;SDS011;6427;49.754;6.106;2022-09-12T03:21:20;53.77;;;8.07;;
12725;SDS011;6427;49.754;6.106;2022-09-12T03:26:42;31.80;;;7.20;;
12725;SDS011;6427;49.754;6.106;2022-09-12T03:29:07;157.57;;;13.90;;
12725;SDS011;6427;49.754;6.106;2022-09-12T03:31:35;91.07;;;10.27;;
12725;SDS011;6427;49.754;6.106;2022-09-12T03:34:03;42.63;;;8.67;;
12725;SDS011;6427;49.754;6.106;2022-09-12T03:36:32;66.67;;;10.03;;
12725;SDS011;6427;49.754;6.106;2022-09-12T03:38:59;158.77;;;15.27;;
12725;SDS011;6427;49.754;6.106;2022-09-12T03:41:27;336.30;;;23.93;;
12725;SDS011;6427;49.754;6.106;2022-09-12T03:43:55;61.10;;;8.43;;
12725;SDS011;6427;49.754;6.106;2022-09-12T03:46:23;38.23;;;7.50;;
12725;SDS011;6427;49.754;6.106;2022-09-12T03:48:51;184.60;;;14.07;;
12725;SDS011;6427;49.754;6.106;2022-09-12T03:51:18;168.13;;;14.07;;
12725;SDS011;6427;49.754;6.106;2022-09-12T03:53:46;104.55;;;11.52;;
12725;SDS011;6427;49.754;6.106;2022-09-12T03:56:14;77.33;;;11.53;;
12725;SDS011;6427;49.754;6.106;2022-09-12T03:58:41;91.03;;;10.10;;
12725;SDS011;6427;49.754;6.106;2022-09-12T04:01:09;349.93;;;23.63;;
12725;SDS011;6427;49.754;6.106;2022-09-12T04:03:40;110.33;;;12.23;;
12725;SDS011;6427;49.754;6.106;2022-09-12T04:06:05;202.87;;;14.50;;
12725;SDS011;6427;49.754;6.106;2022-09-12T04:08:33;55.67;;;9.13;;
12725;SDS011;6427;49.754;6.106;2022-09-12T04:11:01;100.30;;;11.23;;
12725;SDS011;6427;49.754;6.106;2022-09-12T04:13:28;165.93;;;13.37;;
12725;SDS011;6427;49.754;6.106;2022-09-12T04:15:56;83.70;;;9.87;;
12725;SDS011;6427;49.754;6.106;2022-09-12T04:18:24;37.70;;;7.20;;
12725;SDS011;6427;49.754;6.106;2022-09-12T04:20:52;36.30;;;7.30;;
12725;SDS011;6427;49.754;6.106;2022-09-12T04:23:19;110.67;;;10.90;;
12725;SDS011;6427;49.754;6.106;2022-09-12T04:25:53;224.23;;;17.60;;
12725;SDS011;6427;49.754;6.106;2022-09-12T04:28:20;72.17;;;8.43;;
12725;SDS011;6427;49.754;6.106;2022-09-12T04:30:48;200.20;;;15.37;;
12725;SDS011;6427;49.754;6.106;2022-09-12T04:33:16;53.73;;;7.70;;
12725;SDS011;6427;49.754;6.106;2022-09-12T04:35:43;80.10;;;10.17;;
12725;SDS011;6427;49.754;6.106;2022-09-12T04:38:11;72.60;;;7.97;;
12725;SDS011;6427;49.754;6.106;2022-09-12T04:40:38;21.87;;;7.30;;
12725;SDS011;6427;49.754;6.106;2022-09-12T04:43:06;62.70;;;16.80;;
12725;SDS011;6427;49.754;6.106;2022-09-12T04:45:34;169.60;;;13.57;;
12725;SDS011;6427;49.754;6.106;2022-09-12T04:48:02;71.75;;;10.07;;
12725;SDS011;6427;49.754;6.106;2022-09-12T04:50:29;35.90;;;6.77;;
12725;SDS011;6427;49.754;6.106;2022-09-12T04:52:57;21.33;;;6.10;;
12725;SDS011;6427;49.754;6.106;2022-09-12T04:55:25;132.67;;;11.20;;
12725;SDS011;6427;49.754;6.106;2022-09-12T04:57:52;46.73;;;8.33;;
12725;SDS011;6427;49.754;6.106;2022-09-12T05:00:20;83.57;;;10.43;;
12725;SDS011;6427;49.754;6.106;2022-09-12T05:02:47;70.00;;;8.10;;
12725;SDS011;6427;49.754;6.106;2022-09-12T05:05:15;137.20;;;12.83;;
12725;SDS011;6427;49.754;6.106;2022-09-12T05:07:42;108.00;;;9.97;;
12725;SDS011;6427;49.754;6.106;2022-09-12T05:10:10;88.77;;;8.03;;
12725;SDS011;6427;49.754;6.106;2022-09-12T05:12:37;116.80;;;10.60;;
12725;SDS011;6427;49.754;6.106;2022-09-12T05:15:05;135.27;;;12.80;;
12725;SDS011;6427;49.754;6.106;2022-09-12T05:17:33;204.17;;;12.70;;
12725;SDS011;6427;49.754;6.106;2022-09-12T05:20:01;154.87;;;12.00;;
12725;SDS011;6427;49.754;6.106;2022-09-12T05:22:28;78.50;;;8.63;;
12725;SDS011;6427;49.754;6.106;2022-09-12T05:24:55;104.50;;;9.63;;
12725;SDS011;6427;49.754;6.106;2022-09-12T05:27:23;94.73;;;10.07;;
12725;SDS011;6427;49.754;6.106;2022-09-12T05:29:51;102.33;;;10.17;;
12725;SDS011;6427;49.754;6.106;2022-09-12T05:32:18;168.87;;;12.87;;
12725;SDS011;6427;49.754;6.106;2022-09-12T05:34:46;92.00;;;8.33;;
12725;SDS011;6427;49.754;6.106;2022-09-12T05:37:14;145.50;;;11.70;;
12725;SDS011;6427;49.754;6.106;2022-09-12T05:39:42;110.03;;;9.47;;
12725;SDS011;6427;49.754;6.106;2022-09-12T05:42:10;100.17;;;9.30;;
12725;SDS011;6427;49.754;6.106;2022-09-12T05:44:38;186.43;;;14.63;;
12725;SDS011;6427;49.754;6.106;2022-09-12T05:47:05;112.33;;;10.30;;
12725;SDS011;6427;49.754;6.106;2022-09-12T05:49:33;58.87;;;8.17;;
12725;SDS011;6427;49.754;6.106;2022-09-12T05:52:01;34.53;;;6.63;;
12725;SDS011;6427;49.754;6.106;2022-09-12T05:54:28;56.17;;;8.73;;
12725;SDS011;6427;49.754;6.106;2022-09-12T05:56:56;50.97;;;7.80;;
12725;SDS011;6427;49.754;6.106;2022-09-12T05:59:24;67.53;;;8.73;;
12725;SDS011;6427;49.754;6.106;2022-09-12T06:01:51;28.30;;;6.73;;
12725;SDS011;6427;49.754;6.106;2022-09-12T06:04:19;24.43;;;7.50;;
12725;SDS011;6427;49.754;6.106;2022-09-12T06:06:47;24.53;;;7.20;;
12725;SDS011;6427;49.754;6.106;2022-09-12T06:09:14;34.03;;;8.63;;
12725;SDS011;6427;49.754;6.106;2022-09-12T06:11:42;12.20;;;6.97;;
12725;SDS011;6427;49.754;6.106;2022-09-12T06:14:11;28.40;;;6.97;;
12725;SDS011;6427;49.754;6.106;2022-09-12T06:16:38;12.77;;;7.47;;
12725;SDS011;6427;49.754;6.106;2022-09-12T06:19:06;44.53;;;8.40;;
12725;SDS011;6427;49.754;6.106;2022-09-12T06:21:34;12.03;;;7.17;;
12725;SDS011;6427;49.754;6.106;2022-09-12T06:24:01;34.87;;;7.07;;
12725;SDS011;6427;49.754;6.106;2022-09-12T06:26:30;15.57;;;5.87;;
12725;SDS011;6427;49.754;6.106;2022-09-12T06:28:58;38.03;;;7.60;;
12725;SDS011;6427;49.754;6.106;2022-09-12T06:31:27;33.77;;;7.57;;
12725;SDS011;6427;49.754;6.106;2022-09-12T06:33:53;26.77;;;8.30;;
12725;SDS011;6427;49.754;6.106;2022-09-12T06:36:26;52.40;;;9.38;;
12725;SDS011;6427;49.754;6.106;2022-09-12T06:38:55;34.00;;;9.10;;
12725;SDS011;6427;49.754;6.106;2022-09-12T06:41:26;73.47;;;10.37;;
12725;SDS011;6427;49.754;6.106;2022-09-12T06:43:53;47.47;;;7.87;;
12725;SDS011;6427;49.754;6.106;2022-09-12T06:46:21;33.07;;;8.90;;
12725;SDS011;6427;49.754;6.106;2022-09-12T06:48:48;46.00;;;9.00;;
12725;SDS011;6427;49.754;6.106;2022-09-12T06:51:16;32.07;;;7.90;;
12725;SDS011;6427;49.754;6.106;2022-09-12T06:53:43;125.63;;;10.47;;
12725;SDS011;6427;49.754;6.106;2022-09-12T06:56:12;16.30;;;7.40;;
12725;SDS011;6427;49.754;6.106;2022-09-12T06:58:39;25.43;;;7.13;;
12725;SDS011;6427;49.754;6.106;2022-09-12T07:01:13;33.40;;;7.47;;
12725;SDS011;6427;49.754;6.106;2022-09-12T07:03:40;25.30;;;8.03;;
12725;SDS011;6427;49.754;6.106;2022-09-12T07:06:08;27.57;;;8.13;;
12725;SDS011;6427;49.754;6.106;2022-09-12T07:08:35;31.77;;;10.00;;
12725;SDS011;6427;49.754;6.106;2022-09-12T07:13:39;20.97;;;8.80;;
12725;SDS011;6427;49.754;6.106;2022-09-12T07:16:07;21.10;;;7.80;;
12725;SDS011;6427;49.754;6.106;2022-09-12T07:18:34;56.97;;;10.00;;
12725;SDS011;6427;49.754;6.106;2022-09-12T07:21:02;65.33;;;10.30;;
12725;SDS011;6427;49.754;6.106;2022-09-12T07:23:30;59.83;;;9.77;;
12725;SDS011;6427;49.754;6.106;2022-09-12T07:25:58;74.37;;;11.80;;
12725;SDS011;6427;49.754;6.106;2022-09-12T07:28:26;14.67;;;8.57;;
12725;SDS011;6427;49.754;6.106;2022-09-12T07:30:53;12.10;;;7.30;;
12725;SDS011;6427;49.754;6.106;2022-09-12T07:33:25;36.30;;;10.02;;
12725;SDS011;6427;49.754;6.106;2022-09-12T07:35:48;14.83;;;9.07;;
12725;SDS011;6427;49.754;6.106;2022-09-12T07:38:16;19.20;;;10.57;;
12725;SDS011;6427;49.754;6.106;2022-09-12T07:40:44;17.30;;;9.87;;
12725;SDS011;6427;49.754;6.106;2022-09-12T07:43:12;20.43;;;9.87;;
12725;SDS011;6427;49.754;6.106;2022-09-12T07:45:39;12.70;;;8.30;;
12725;SDS011;6427;49.754;6.106;2022-09-12T07:48:07;11.30;;;8.40;;
12725;SDS011;6427;49.754;6.106;2022-09-12T07:50:35;10.30;;;7.67;;
12725;SDS011;6427;49.754;6.106;2022-09-12T07:53:03;23.80;;;8.77;;
12725;SDS011;6427;49.754;6.106;2022-09-12T07:55:30;19.33;;;8.13;;
12725;SDS011;6427;49.754;6.106;2022-09-12T07:57:58;13.77;;;8.10;;
12725;SDS011;6427;49.754;6.106;2022-09-12T08:00:26;13.23;;;8.63;;
12725;SDS011;6427;49.754;6.106;2022-09-12T08:02:53;17.33;;;8.77;;
12725;SDS011;6427;49.754;6.106;2022-09-12T08:05:21;8.90;;;7.50;;
12725;SDS011;6427;49.754;6.106;2022-09-12T08:07:48;13.63;;;7.70;;
12725;SDS011;6427;49.754;6.106;2022-09-12T08:10:16;14.97;;;8.00;;
12725;SDS011;6427;49.754;6.106;2022-09-12T08:12:44;18.23;;;8.40;;
12725;SDS011;6427;49.754;6.106;2022-09-12T08:15:12;9.33;;;7.87;;
12725;SDS011;6427;49.754;6.106;2022-09-12T08:17:41;11.23;;;8.70;;
12725;SDS011;6427;49.754;6.106;2022-09-12T08:20:08;10.67;;;8.13;;
12725;SDS011;6427;49.754;6.106;2022-09-12T08:22:36;13.03;;;8.53;;
12725;SDS011;6427;49.754;6.106;2022-09-12T08:25:03;12.53;;;8.93;;
12725;SDS011;6427;49.754;6.106;2022-09-12T08:27:32;10.20;;;8.77;;
12725;SDS011;6427;49.754;6.106;2022-09-12T08:29:59;13.67;;;9.33;;
12725;SDS011;6427;49.754;6.106;2022-09-12T08:32:27;14.13;;;8.93;;
12725;SDS011;6427;49.754;6.106;2022-09-12T08:34:55;11.23;;;8.70;;
12725;SDS011;6427;49.754;6.106;2022-09-12T08:37:22;13.63;;;8.63;;
12725;SDS011;6427;49.754;6.106;2022-09-12T08:39:50;9.37;;;7.77;;
12725;SDS011;6427;49.754;6.106;2022-09-12T08:42:22;11.80;;;8.20;;
12725;SDS011;6427;49.754;6.106;2022-09-12T08:47:23;13.62;;;10.25;;
12725;SDS011;6427;49.754;6.106;2022-09-12T08:57:54;14.03;;;8.37;;
12725;SDS011;6427;49.754;6.106;2022-09-12T09:00:22;10.40;;;7.73;;
12725;SDS011;6427;49.754;6.106;2022-09-12T09:03:03;9.17;;;7.60;;
12725;SDS011;6427;49.754;6.106;2022-09-12T09:08:23;9.50;;;7.90;;
12725;SDS011;6427;49.754;6.106;2022-09-12T09:11:19;9.23;;;7.80;;
12725;SDS011;6427;49.754;6.106;2022-09-12T09:13:52;10.23;;;8.03;;
12725;SDS011;6427;49.754;6.106;2022-09-12T09:16:47;13.57;;;9.50;;
12725;SDS011;6427;49.754;6.106;2022-09-12T09:19:25;9.00;;;7.23;;
12725;SDS011;6427;49.754;6.106;2022-09-12T09:24:27;10.07;;;7.27;;
12725;SDS011;6427;49.754;6.106;2022-09-12T09:26:54;9.77;;;7.27;;
12725;SDS011;6427;49.754;6.106;2022-09-12T09:29:21;10.47;;;7.13;;
12725;SDS011;6427;49.754;6.106;2022-09-12T09:31:48;7.73;;;6.30;;
12725;SDS011;6427;49.754;6.106;2022-09-12T09:34:34;8.63;;;6.57;;
12725;SDS011;6427;49.754;6.106;2022-09-12T09:36:50;10.47;;;7.87;;
12725;SDS011;6427;49.754;6.106;2022-09-12T09:42:36;7.20;;;6.20;;
12725;SDS011;6427;49.754;6.106;2022-09-12T09:45:02;7.87;;;5.90;;
12725;SDS011;6427;49.754;6.106;2022-09-12T09:47:29;8.67;;;5.90;;
12725;SDS011;6427;49.754;6.106;2022-09-12T09:49:57;7.83;;;5.90;;
12725;SDS011;6427;49.754;6.106;2022-09-12T09:52:25;9.57;;;5.70;;
12725;SDS011;6427;49.754;6.106;2022-09-12T09:55:02;7.93;;;5.30;;
12725;SDS011;6427;49.754;6.106;2022-09-12T10:03:03;7.90;;;5.77;;
12725;SDS011;6427;49.754;6.106;2022-09-12T10:05:31;9.10;;;5.17;;
12725;SDS011;6427;49.754;6.106;2022-09-12T10:07:58;8.00;;;5.30;;
12725;SDS011;6427;49.754;6.106;2022-09-12T10:10:26;10.27;;;5.53;;
12725;SDS011;6427;49.754;6.106;2022-09-12T10:13:18;6.90;;;4.90;;
12725;SDS011;6427;49.754;6.106;2022-09-12T10:15:36;8.50;;;4.97;;
12725;SDS011;6427;49.754;6.106;2022-09-12T10:18:05;4.97;;;4.27;;
12725;SDS011;6427;49.754;6.106;2022-09-12T10:23:01;4.83;;;3.70;;
12725;SDS011;6427;49.754;6.106;2022-09-12T10:25:27;4.20;;;3.55;;
12725;SDS011;6427;49.754;6.106;2022-09-12T10:27:56;3.73;;;2.80;;
12725;SDS011;6427;49.754;6.106;2022-09-12T10:30:23;3.30;;;2.87;;
12725;SDS011;6427;49.754;6.106;2022-09-12T10:32:55;4.40;;;2.77;;
12725;SDS011;6427;49.754;6.106;2022-09-12T10:35:21;5.20;;;3.30;;
12725;SDS011;6427;49.754;6.106;2022-09-12T10:37:57;3.87;;;2.50;;
12725;SDS011;6427;49.754;6.106;2022-09-12T10:40:35;2.90;;;2.70;;
12725;SDS011;6427;49.754;6.106;2022-09-12T10:43:01;2.80;;;2.60;;
12725;SDS011;6427;49.754;6.106;2022-09-12T10:45:36;4.90;;;2.73;;
12725;SDS011;6427;49.754;6.106;2022-09-12T10:50:59;6.50;;;3.07;;
12725;SDS011;6427;49.754;6.106;2022-09-12T10:53:27;4.00;;;2.63;;
12725;SDS011;6427;49.754;6.106;2022-09-12T11:01:32;2.70;;;2.50;;
12725;SDS011;6427;49.754;6.106;2022-09-12T11:06:55;1.73;;;1.20;;
12725;SDS011;6427;49.754;6.106;2022-09-12T11:15:06;3.20;;;1.87;;
12725;SDS011;6427;49.754;6.106;2022-09-12T11:25:51;3.37;;;1.30;;
12725;SDS011;6427;49.754;6.106;2022-09-12T11:28:27;1.93;;;1.40;;
12725;SDS011;6427;49.754;6.106;2022-09-12T11:33:46;1.43;;;1.30;;
12725;SDS011;6427;49.754;6.106;2022-09-12T11:37:00;3.00;;;1.60;;
12725;SDS011;6427;49.754;6.106;2022-09-12T11:38:50;2.03;;;1.50;;
12725;SDS011;6427;49.754;6.106;2022-09-12T11:41:30;1.43;;;1.10;;
12725;SDS011;6427;49.754;6.106;2022-09-12T11:43:59;1.63;;;1.30;;
12725;SDS011;6427;49.754;6.106;2022-09-12T11:46:30;2.80;;;1.27;;
12725;SDS011;6427;49.754;6.106;2022-09-12T11:51:32;1.87;;;1.00;;
12725;SDS011;6427;49.754;6.106;2022-09-12T11:54:12;1.30;;;1.20;;
12725;SDS011;6427;49.754;6.106;2022-09-12T11:56:48;2.12;;;1.30;;
12725;SDS011;6427;49.754;6.106;2022-09-12T11:59:16;2.30;;;1.00;;
12725;SDS011;6427;49.754;6.106;2022-09-12T12:01:42;1.93;;;1.20;;
12725;SDS011;6427;49.754;6.106;2022-09-12T12:04:10;0.90;;;0.90;;
12725;SDS011;6427;49.754;6.106;2022-09-12T12:06:53;1.65;;;0.82;;
12725;SDS011;6427;49.754;6.106;2022-09-12T12:09:17;0.90;;;0.70;;
12725;SDS011;6427;49.754;6.106;2022-09-12T12:11:50;2.33;;;0.95;;
12725;SDS011;6427;49.754;6.106;2022-09-12T12:14:20;1.13;;;0.90;;
12725;SDS011;6427;49.754;6.106;2022-09-12T12:16:47;2.37;;;0.90;;
12725;SDS011;6427;49.754;6.106;2022-09-12T12:21:43;1.23;;;1.10;;
12725;SDS011;6427;49.754;6.106;2022-09-12T12:24:12;1.17;;;1.00;;
12725;SDS011;6427;49.754;6.106;2022-09-12T12:26:58;1.60;;;1.20;;
12725;SDS011;6427;49.754;6.106;2022-09-12T12:34:26;2.20;;;1.27;;
12725;SDS011;6427;49.754;6.106;2022-09-12T12:36:53;1.73;;;1.30;;
12725;SDS011;6427;49.754;6.106;2022-09-12T12:42:00;1.30;;;1.20;;
12725;SDS011;6427;49.754;6.106;2022-09-12T12:47:14;1.27;;;0.93;;
12725;SDS011;6427;49.754;6.106;2022-09-12T12:49:54;1.63;;;1.00;;
12725;SDS011;6427;49.754;6.106;2022-09-12T12:52:22;1.80;;;1.00;;
12725;SDS011;6427;49.754;6.106;2022-09-12T12:55:00;1.42;;;1.27;;
12725;SDS011;6427;49.754;6.106;2022-09-12T12:57:25;2.80;;;1.10;;
12725;SDS011;6427;49.754;6.106;2022-09-12T12:59:57;1.37;;;1.10;;
12725;SDS011;6427;49.754;6.106;2022-09-12T13:02:26;1.07;;;0.90;;
12725;SDS011;6427;49.754;6.106;2022-09-12T13:05:15;1.50;;;1.10;;
12725;SDS011;6427;49.754;6.106;2022-09-12T13:07:43;1.10;;;1.00;;
12725;SDS011;6427;49.754;6.106;2022-09-12T13:10:19;2.83;;;1.17;;
12725;SDS011;6427;49.754;6.106;2022-09-12T13:12:43;1.30;;;0.97;;
12725;SDS011;6427;49.754;6.106;2022-09-12T13:17:58;3.05;;;1.27;;
12725;SDS011;6427;49.754;6.106;2022-09-12T13:20:29;1.47;;;1.33;;
12725;SDS011;6427;49.754;6.106;2022-09-12T13:22:56;2.00;;;1.20;;
12725;SDS011;6427;49.754;6.106;2022-09-12T13:28:01;4.17;;;1.20;;
12725;SDS011;6427;49.754;6.106;2022-09-12T13:30:32;1.10;;;1.00;;
12725;SDS011;6427;49.754;6.106;2022-09-12T13:33:03;18.60;;;1.50;;
12725;SDS011;6427;49.754;6.106;2022-09-12T13:38:07;2.73;;;0.73;;
12725;SDS011;6427;49.754;6.106;2022-09-12T13:43:39;2.03;;;1.00;;
12725;SDS011;6427;49.754;6.106;2022-09-12T13:46:06;1.57;;;1.27;;
12725;SDS011;6427;49.754;6.106;2022-09-12T13:48:33;2.97;;;1.00;;
12725;SDS011;6427;49.754;6.106;2022-09-12T13:51:01;1.77;;;0.93;;
12725;SDS011;6427;49.754;6.106;2022-09-12T13:53:39;1.10;;;1.00;;
12725;SDS011;6427;49.754;6.106;2022-09-12T13:55:57;0.80;;;0.77;;
12725;SDS011;6427;49.754;6.106;2022-09-12T13:58:26;2.40;;;1.03;;
12725;SDS011;6427;49.754;6.106;2022-09-12T14:01:12;1.40;;;0.80;;
12725;SDS011;6427;49.754;6.106;2022-09-12T14:03:39;1.73;;;1.17;;
12725;SDS011;6427;49.754;6.106;2022-09-12T14:06:24;2.23;;;1.10;;
12725;SDS011;6427;49.754;6.106;2022-09-12T14:08:52;3.30;;;1.13;;
12725;SDS011;6427;49.754;6.106;2022-09-12T14:11:26;1.07;;;0.87;;
12725;SDS011;6427;49.754;6.106;2022-09-12T14:13:53;0.60;;;0.60;;
12725;SDS011;6427;49.754;6.106;2022-09-12T14:16:21;2.13;;;1.00;;
12725;SDS011;6427;49.754;6.106;2022-09-12T14:18:48;1.13;;;0.73;;
12725;SDS011;6427;49.754;6.106;2022-09-12T14:21:25;4.37;;;0.83;;
12725;SDS011;6427;49.754;6.106;2022-09-12T14:23:59;2.90;;;0.93;;
12725;SDS011;6427;49.754;6.106;2022-09-12T14:26:30;1.37;;;1.03;;
12725;SDS011;6427;49.754;6.106;2022-09-12T14:28:54;1.33;;;0.95;;
12725;SDS011;6427;49.754;6.106;2022-09-12T14:31:32;2.70;;;0.97;;
12725;SDS011;6427;49.754;6.106;2022-09-12T14:34:08;0.82;;;0.82;;
12725;SDS011;6427;49.754;6.106;2022-09-12T14:36:42;1.77;;;1.03;;
12725;SDS011;6427;49.754;6.106;2022-09-12T14:39:57;4.37;;;0.83;;
12725;SDS011;6427;49.754;6.106;2022-09-12T14:42:03;1.03;;;1.00;;
12725;SDS011;6427;49.754;6.106;2022-09-12T14:44:33;1.60;;;0.90;;
12725;SDS011;6427;49.754;6.106;2022-09-12T14:47:09;1.27;;;1.17;;
12725;SDS011;6427;49.754;6.106;2022-09-12T14:49:30;1.30;;;0.95;;
12725;SDS011;6427;49.754;6.106;2022-09-12T14:52:02;1.50;;;1.00;;
12725;SDS011;6427;49.754;6.106;2022-09-12T14:57:28;1.53;;;0.93;;
12725;SDS011;6427;49.754;6.106;2022-09-12T14:59:44;2.80;;;0.90;;
12725;SDS011;6427;49.754;6.106;2022-09-12T15:04:49;1.17;;;0.90;;
12725;SDS011;6427;49.754;6.106;2022-09-12T15:07:34;0.87;;;0.87;;
12725;SDS011;6427;49.754;6.106;2022-09-12T15:10:03;1.73;;;1.12;;
12725;SDS011;6427;49.754;6.106;2022-09-12T15:12:32;1.02;;;0.90;;
12725;SDS011;6427;49.754;6.106;2022-09-12T15:15:19;1.48;;;1.00;;
12725;SDS011;6427;49.754;6.106;2022-09-12T15:17:40;1.40;;;1.00;;
12725;SDS011;6427;49.754;6.106;2022-09-12T15:20:08;1.58;;;1.20;;
12725;SDS011;6427;49.754;6.106;2022-09-12T15:22:36;1.80;;;1.10;;
12725;SDS011;6427;49.754;6.106;2022-09-12T15:25:04;2.20;;;1.10;;
12725;SDS011;6427;49.754;6.106;2022-09-12T15:27:31;1.00;;;0.90;;
12725;SDS011;6427;49.754;6.106;2022-09-12T15:29:58;3.13;;;1.20;;
12725;SDS011;6427;49.754;6.106;2022-09-12T15:32:29;1.67;;;0.93;;
12725;SDS011;6427;49.754;6.106;2022-09-12T15:34:56;0.90;;;0.90;;
12725;SDS011;6427;49.754;6.106;2022-09-12T15:37:24;1.93;;;1.20;;
12725;SDS011;6427;49.754;6.106;2022-09-12T15:39:52;1.77;;;1.30;;
12725;SDS011;6427;49.754;6.106;2022-09-12T15:42:23;2.53;;;1.00;;
12725;SDS011;6427;49.754;6.106;2022-09-12T15:44:47;1.00;;;0.90;;
12725;SDS011;6427;49.754;6.106;2022-09-12T15:47:15;1.03;;;0.93;;
12725;SDS011;6427;49.754;6.106;2022-09-12T15:49:43;1.20;;;1.10;;
12725;SDS011;6427;49.754;6.106;2022-09-12T15:52:13;1.10;;;1.00;;
12725;SDS011;6427;49.754;6.106;2022-09-12T15:54:38;1.30;;;1.10;;
12725;SDS011;6427;49.754;6.106;2022-09-12T15:57:06;2.00;;;1.07;;
12725;SDS011;6427;49.754;6.106;2022-09-12T15:59:34;1.43;;;1.23;;
12725;SDS011;6427;49.754;6.106;2022-09-12T16:02:01;1.27;;;1.13;;
12725;SDS011;6427;49.754;6.106;2022-09-12T16:04:29;1.10;;;1.00;;
12725;SDS011;6427;49.754;6.106;2022-09-12T16:06:56;1.37;;;1.20;;
12725;SDS011;6427;49.754;6.106;2022-09-12T16:09:23;1.40;;;1.30;;
12725;SDS011;6427;49.754;6.106;2022-09-12T16:11:51;1.30;;;1.20;;
12725;SDS011;6427;49.754;6.106;2022-09-12T16:14:19;1.10;;;0.83;;
12725;SDS011;6427;49.754;6.106;2022-09-12T16:16:50;2.40;;;1.17;;
12725;SDS011;6427;49.754;6.106;2022-09-12T16:19:17;1.73;;;1.20;;
12725;SDS011;6427;49.754;6.106;2022-09-12T16:21:45;1.20;;;1.10;;
12725;SDS011;6427;49.754;6.106;2022-09-12T16:24:12;0.97;;;0.97;;
12725;SDS011;6427;49.754;6.106;2022-09-12T16:26:40;3.00;;;0.97;;
12725;SDS011;6427;49.754;6.106;2022-09-12T16:29:07;1.40;;;1.00;;
12725;SDS011;6427;49.754;6.106;2022-09-12T16:31:35;1.67;;;1.10;;
12725;SDS011;6427;49.754;6.106;2022-09-12T16:34:02;2.97;;;1.33;;
12725;SDS011;6427;49.754;6.106;2022-09-12T16:36:31;1.07;;;0.90;;
12725;SDS011;6427;49.754;6.106;2022-09-12T16:38:58;2.40;;;1.17;;
12725;SDS011;6427;49.754;6.106;2022-09-12T16:41:26;1.10;;;1.00;;
12725;SDS011;6427;49.754;6.106;2022-09-12T16:43:54;4.03;;;1.03;;
12725;SDS011;6427;49.754;6.106;2022-09-12T16:46:23;2.03;;;0.90;;
12725;SDS011;6427;49.754;6.106;2022-09-12T16:48:50;1.62;;;1.23;;
12725;SDS011;6427;49.754;6.106;2022-09-12T16:51:21;2.77;;;1.07;;
12725;SDS011;6427;49.754;6.106;2022-09-12T16:53:50;1.43;;;0.90;;
12725;SDS011;6427;49.754;6.106;2022-09-12T16:56:18;1.40;;;1.00;;
12725;SDS011;6427;49.754;6.106;2022-09-12T16:58:45;1.57;;;1.27;;
12725;SDS011;6427;49.754;6.106;2022-09-12T17:01:14;0.83;;;0.83;;
12725;SDS011;6427;49.754;6.106;2022-09-12T17:03:40;1.50;;;1.27;;